createdAt,value
2023-12-16T00:01:48.163Z,5.98
2023-12-16T00:06:50.133Z,5.95
2023-12-16T00:11:52.932Z,5.87
2023-12-16T00:16:55.213Z,5.90
2023-12-16T00:21:57.121Z,5.96
2023-12-16T00:26:59.109Z,5.97
2023-12-16T00:32:00.790Z,5.94
2023-12-16T00:37:07.045Z,5.99
2023-12-16T00:42:08.846Z,5.96
2023-12-16T00:47:10.497Z,5.97
2023-12-16T00:52:12.159Z,5.97
2023-12-16T00:57:13.824Z,5.96
2023-12-16T01:02:15.469Z,5.99
2023-12-16T01:07:17.193Z,6.06
2023-12-16T01:12:18.965Z,6.04
2023-12-16T01:17:21.604Z,6.00
2023-12-16T01:22:23.328Z,5.93
2023-12-16T01:27:25.792Z,5.93
2023-12-16T01:32:27.913Z,5.92
2023-12-16T01:37:30.601Z,5.95
2023-12-16T01:42:32.261Z,6.04
2023-12-16T01:47:34.036Z,5.99
2023-12-16T01:52:36.035Z,6.00
2023-12-16T01:57:38.190Z,5.99
2023-12-16T02:02:45.729Z,6.05
2023-12-16T02:07:47.691Z,6.05
2023-12-16T02:12:50.513Z,5.95
2023-12-16T02:17:52.220Z,5.99
2023-12-16T02:22:54.151Z,5.98
2023-12-16T02:27:55.795Z,6.06
2023-12-16T02:32:58.300Z,5.98
2023-12-16T02:38:00.075Z,6.12
2023-12-16T02:43:02.982Z,6.20
2023-12-16T02:48:05.003Z,6.15
2023-12-16T02:53:08.091Z,6.05
2023-12-16T02:58:09.863Z,6.00
2023-12-16T03:03:12.174Z,6.01
2023-12-16T03:08:13.860Z,6.04
2023-12-16T03:13:15.549Z,6.02
2023-12-16T03:18:17.314Z,6.11
2023-12-16T03:23:19.081Z,6.18
2023-12-16T03:28:20.744Z,6.11
2023-12-16T03:33:22.496Z,6.09
2023-12-16T03:38:24.215Z,6.06
2023-12-16T03:43:25.875Z,6.19
2023-12-16T03:48:27.632Z,6.18
2023-12-16T03:53:29.366Z,6.14
2023-12-16T03:58:31.396Z,6.13
2023-12-16T04:03:33.080Z,6.11
2023-12-16T04:08:34.737Z,6.07
2023-12-16T04:13:37.011Z,5.97
2023-12-16T04:18:39.152Z,5.90
2023-12-16T04:23:40.886Z,5.90
2023-12-16T04:28:42.538Z,5.89
2023-12-16T04:33:45.228Z,5.86
2023-12-16T04:38:47.179Z,5.95
2023-12-16T04:43:48.878Z,6.02
2023-12-16T04:48:50.685Z,5.98
2023-12-16T04:53:52.392Z,6.07
2023-12-16T04:58:54.032Z,6.07
2023-12-16T05:03:56.440Z,6.08
2023-12-16T05:08:58.287Z,6.06
2023-12-16T05:13:59.932Z,6.03
2023-12-16T05:19:01.755Z,6.01
2023-12-16T05:24:03.877Z,5.96
2023-12-16T05:29:05.571Z,5.88
2023-12-16T05:34:07.391Z,5.92
2023-12-16T05:39:09.086Z,5.91
2023-12-16T05:44:10.731Z,5.94
2023-12-16T05:49:12.489Z,5.96
2023-12-16T05:54:14.237Z,6.01
2023-12-16T05:59:15.958Z,6.01
2023-12-16T06:04:17.679Z,6.00
2023-12-16T06:09:19.370Z,5.92
2023-12-16T06:14:21.047Z,5.92
2023-12-16T06:19:25.869Z,5.93
2023-12-16T06:24:29.176Z,5.96
2023-12-16T06:29:31.521Z,5.94
2023-12-16T06:34:33.221Z,5.98
2023-12-16T06:39:34.932Z,5.98
2023-12-16T06:44:37.813Z,6.05
2023-12-16T06:49:39.650Z,6.06
2023-12-16T06:54:41.317Z,6.04
2023-12-16T06:59:43.005Z,6.09
2023-12-16T07:04:44.781Z,6.12
2023-12-16T07:09:46.547Z,6.09
2023-12-16T07:14:48.671Z,6.05
2023-12-16T07:19:50.619Z,6.00
2023-12-16T07:24:52.419Z,5.98
2023-12-16T07:29:54.174Z,5.93
2023-12-16T07:34:55.953Z,6.02
2023-12-16T07:39:57.691Z,6.06
2023-12-16T07:44:59.408Z,6.08
2023-12-16T07:50:01.166Z,6.16
2023-12-16T07:55:03.618Z,6.18
2023-12-16T08:00:06.098Z,6.18
2023-12-16T08:05:08.146Z,6.20
2023-12-16T08:10:10.016Z,6.36
2023-12-16T08:15:11.721Z,6.36
2023-12-16T08:20:13.485Z,6.54
2023-12-16T08:25:15.273Z,6.59
2023-12-16T08:30:16.968Z,6.60
2023-12-16T08:35:19.233Z,6.72
2023-12-16T08:40:21.054Z,6.68
2023-12-16T08:45:22.729Z,6.72
2023-12-16T08:50:24.779Z,6.75
2023-12-16T08:55:28.011Z,6.87
2023-12-16T09:00:29.856Z,6.83
2023-12-16T09:05:32.447Z,6.91
2023-12-16T09:10:36.224Z,6.89
2023-12-16T09:15:37.910Z,6.97
2023-12-16T09:20:39.540Z,7.00
2023-12-16T09:25:41.234Z,7.14
2023-12-16T09:30:42.978Z,7.02
2023-12-16T09:35:44.641Z,7.19
2023-12-16T09:40:46.395Z,7.06
2023-12-16T09:45:48.200Z,7.16
2023-12-16T09:50:49.997Z,7.33
2023-12-16T09:55:54.833Z,7.23
2023-12-16T10:00:57.413Z,7.30
2023-12-16T10:05:59.225Z,7.34
2023-12-16T10:11:11.770Z,7.41
2023-12-16T10:16:23.222Z,7.37
2023-12-16T10:21:29.597Z,7.37
2023-12-16T10:26:32.759Z,7.72
2023-12-16T10:31:35.876Z,7.69
2023-12-16T10:36:37.692Z,7.89
2023-12-16T10:41:39.349Z,7.73
2023-12-16T10:46:43.111Z,7.76
2023-12-16T10:51:49.631Z,7.85
2023-12-16T10:57:03.974Z,8.05
2023-12-16T11:02:18.632Z,8.20
2023-12-16T11:07:24.002Z,8.19
2023-12-16T11:12:26.606Z,7.96
2023-12-16T11:17:34.455Z,7.91
2023-12-16T11:22:47.702Z,8.14
2023-12-16T11:27:50.639Z,9.90
2023-12-16T11:32:56.587Z,10.13
2023-12-16T11:37:58.358Z,11.56
2023-12-16T11:43:04.065Z,11.34
2023-12-16T11:48:06.470Z,12.18
2023-12-16T11:53:10.635Z,10.59
2023-12-16T11:58:12.439Z,9.68
2023-12-16T12:03:14.161Z,9.31
2023-12-16T12:08:15.834Z,9.35
2023-12-16T12:13:17.540Z,9.54
2023-12-16T12:18:19.289Z,9.04
2023-12-16T12:23:21.046Z,9.17
2023-12-16T12:28:22.959Z,8.70
2023-12-16T12:33:24.927Z,8.69
2023-12-16T12:38:29.135Z,8.60
2023-12-16T12:43:32.305Z,9.09
2023-12-16T12:48:34.725Z,8.95
2023-12-16T12:53:37.129Z,8.45
2023-12-16T12:58:38.823Z,8.27
2023-12-16T13:03:41.618Z,8.08
2023-12-16T13:08:43.372Z,8.10
2023-12-16T13:13:45.011Z,8.24
2023-12-16T13:18:47.508Z,8.34
2023-12-16T13:23:49.592Z,8.23
2023-12-16T13:28:51.345Z,8.15
2023-12-16T13:33:53.070Z,8.17
2023-12-16T13:38:56.704Z,8.08
2023-12-16T13:43:58.372Z,8.10
2023-12-16T13:49:03.037Z,7.91
2023-12-16T13:54:05.058Z,7.75
2023-12-16T13:59:06.718Z,7.66
2023-12-16T14:04:08.384Z,7.55
2023-12-16T14:09:10.340Z,7.44
2023-12-16T14:14:12.393Z,7.41
2023-12-16T14:19:14.134Z,7.36
2023-12-16T14:24:15.870Z,7.24
2023-12-16T14:29:17.513Z,7.23
2023-12-16T14:34:20.374Z,7.12
2023-12-16T14:39:22.197Z,7.02
2023-12-16T14:44:23.880Z,6.96
2023-12-16T14:49:28.381Z,6.89
2023-12-16T14:54:30.084Z,6.83
2023-12-16T14:59:32.099Z,6.76
2023-12-16T15:04:34.947Z,6.72
2023-12-16T15:09:37.864Z,6.58
2023-12-16T15:14:39.638Z,6.65
2023-12-16T15:19:41.386Z,6.88
2023-12-16T15:24:43.101Z,6.87
2023-12-16T15:29:45.153Z,6.78
2023-12-16T15:34:46.934Z,6.86
2023-12-16T15:39:48.660Z,6.83
2023-12-16T15:44:50.423Z,6.87
2023-12-16T15:49:53.498Z,6.87
2023-12-16T15:54:55.256Z,6.86
2023-12-16T15:59:57.115Z,6.93
2023-12-16T16:04:58.820Z,6.80
2023-12-16T16:10:00.711Z,6.85
2023-12-16T16:15:02.432Z,6.89
2023-12-16T16:20:08.384Z,6.95
2023-12-16T16:25:11.608Z,6.94
2023-12-16T16:30:13.755Z,6.93
2023-12-16T16:35:15.526Z,6.98
2023-12-16T16:40:18.475Z,6.92
2023-12-16T16:45:20.252Z,6.80
2023-12-16T16:50:21.949Z,6.90
2023-12-16T16:55:23.833Z,6.96
2023-12-16T17:00:25.624Z,7.00
2023-12-16T17:05:27.408Z,7.02
2023-12-16T17:10:29.615Z,6.99
2023-12-16T17:15:31.321Z,7.10
2023-12-16T17:20:33.123Z,7.13
2023-12-16T17:25:34.798Z,7.08
2023-12-16T17:30:36.552Z,7.12
2023-12-16T17:35:39.754Z,7.13
2023-12-16T17:40:41.536Z,7.06
2023-12-16T17:45:43.242Z,7.07
2023-12-16T17:50:46.066Z,7.09
2023-12-16T17:55:47.719Z,7.17
2023-12-16T18:00:49.468Z,7.17
2023-12-16T18:05:51.237Z,7.21
2023-12-16T18:10:53.445Z,7.33
2023-12-16T18:15:55.354Z,7.30
2023-12-16T18:21:00.950Z,7.36
2023-12-16T18:26:09.262Z,7.35
2023-12-16T18:31:11.159Z,7.38
2023-12-16T18:36:12.924Z,7.41
2023-12-16T18:41:14.635Z,7.40
2023-12-16T18:46:16.333Z,7.48
2023-12-16T18:51:18.299Z,7.49
2023-12-16T18:56:20.021Z,7.42
2023-12-16T19:01:21.738Z,7.50
2023-12-16T19:06:23.682Z,7.44
2023-12-16T19:11:25.326Z,7.52
2023-12-16T19:16:26.976Z,7.44
2023-12-16T19:21:28.780Z,7.53
2023-12-16T19:26:30.464Z,7.48
2023-12-16T19:31:32.154Z,7.50
2023-12-16T19:36:34.093Z,7.53
2023-12-16T19:41:35.792Z,7.52
2023-12-16T19:46:37.496Z,7.54
2023-12-16T19:51:39.544Z,7.48
2023-12-16T19:56:41.201Z,7.55
2023-12-16T20:01:47.868Z,7.57
2023-12-16T20:06:49.751Z,7.57
2023-12-16T20:11:51.774Z,7.65
2023-12-16T20:16:53.452Z,7.63
2023-12-16T20:21:57.410Z,7.62
2023-12-16T20:26:59.323Z,7.60
2023-12-16T20:32:01.115Z,7.69
2023-12-16T20:37:02.821Z,7.64
2023-12-16T20:42:04.740Z,7.69
2023-12-16T20:47:06.545Z,7.65
2023-12-16T20:52:08.290Z,7.61
2023-12-16T20:57:10.088Z,7.61
2023-12-16T21:02:11.759Z,7.59
2023-12-16T21:07:15.086Z,7.57
2023-12-16T21:12:17.050Z,7.59
2023-12-16T21:17:20.102Z,7.60
2023-12-16T21:22:21.792Z,7.69
2023-12-16T21:27:23.538Z,7.61
2023-12-16T21:32:25.358Z,7.62
2023-12-16T21:37:28.460Z,7.63
2023-12-16T21:42:30.112Z,7.71
2023-12-16T21:47:31.920Z,7.62
2023-12-16T21:52:33.614Z,7.73
2023-12-16T21:57:35.845Z,7.71
2023-12-16T22:02:37.548Z,7.76
2023-12-16T22:07:39.543Z,7.72
2023-12-16T22:12:41.324Z,7.71
2023-12-16T22:17:43.730Z,7.70
2023-12-16T22:22:45.657Z,7.65
2023-12-16T22:27:47.300Z,7.70
2023-12-16T22:32:49.074Z,7.70
2023-12-16T22:37:50.872Z,7.64
2023-12-16T22:42:52.684Z,7.63
2023-12-16T22:47:54.457Z,7.59
2023-12-16T22:52:56.215Z,7.55
2023-12-16T22:57:57.867Z,7.58
2023-12-16T23:02:59.797Z,7.53
2023-12-16T23:08:01.506Z,7.58
2023-12-16T23:13:03.204Z,7.50
2023-12-16T23:18:05.971Z,7.43
2023-12-16T23:23:07.714Z,7.45
2023-12-16T23:28:09.363Z,7.35
2023-12-16T23:33:11.261Z,7.35
2023-12-16T23:38:12.959Z,7.30
2023-12-16T23:43:14.618Z,7.30
2023-12-16T23:48:16.453Z,7.27
2023-12-16T23:53:18.174Z,7.19
2023-12-16T23:58:19.881Z,7.14
